sensor_id;sensor_type;location;lat;lon;timestamp;P1;durP1;ratioP1;P2;durP2;ratioP2
3677;SDS011;1855;50.934;6.958;2023-09-12T00:00:39;8.07;;;7.28;;
3677;SDS011;1855;50.934;6.958;2023-09-12T00:03:05;7.10;;;6.50;;
3677;SDS011;1855;50.934;6.958;2023-09-12T00:05:32;6.97;;;6.38;;
3677;SDS011;1855;50.934;6.958;2023-09-12T00:08:00;6.93;;;6.32;;
3677;SDS011;1855;50.934;6.958;2023-09-12T00:10:28;6.93;;;6.30;;
3677;SDS011;1855;50.934;6.958;2023-09-12T00:12:55;7.20;;;6.50;;
3677;SDS011;1855;50.934;6.958;2023-09-12T00:15:22;7.07;;;6.38;;
3677;SDS011;1855;50.934;6.958;2023-09-12T00:17:48;6.65;;;6.15;;
3677;SDS011;1855;50.934;6.958;2023-09-12T00:20:15;7.20;;;6.60;;
3677;SDS011;1855;50.934;6.958;2023-09-12T00:22:42;6.57;;;5.30;;
3677;SDS011;1855;50.934;6.958;2023-09-12T00:25:10;6.57;;;5.97;;
3677;SDS011;1855;50.934;6.958;2023-09-12T00:27:37;5.90;;;5.40;;
3677;SDS011;1855;50.934;6.958;2023-09-12T00:30:04;6.50;;;5.95;;
3677;SDS011;1855;50.934;6.958;2023-09-12T00:32:31;7.00;;;6.40;;
3677;SDS011;1855;50.934;6.958;2023-09-12T00:34:58;6.40;;;5.80;;
3677;SDS011;1855;50.934;6.958;2023-09-12T00:37:25;6.95;;;5.93;;
3677;SDS011;1855;50.934;6.958;2023-09-12T00:39:51;6.80;;;6.20;;
3677;SDS011;1855;50.934;6.958;2023-09-12T00:42:20;6.68;;;5.97;;
3677;SDS011;1855;50.934;6.958;2023-09-12T00:44:46;6.70;;;6.10;;
3677;SDS011;1855;50.934;6.958;2023-09-12T00:47:13;6.50;;;5.80;;
3677;SDS011;1855;50.934;6.958;2023-09-12T00:49:40;7.35;;;6.50;;
3677;SDS011;1855;50.934;6.958;2023-09-12T00:52:08;6.90;;;6.30;;
3677;SDS011;1855;50.934;6.958;2023-09-12T00:54:35;6.82;;;6.13;;
3677;SDS011;1855;50.934;6.958;2023-09-12T00:57:02;7.15;;;6.45;;
3677;SDS011;1855;50.934;6.958;2023-09-12T00:59:31;7.97;;;7.30;;
3677;SDS011;1855;50.934;6.958;2023-09-12T01:01:58;7.90;;;7.20;;
3677;SDS011;1855;50.934;6.958;2023-09-12T01:04:25;7.68;;;6.97;;
3677;SDS011;1855;50.934;6.958;2023-09-12T01:06:52;7.50;;;6.80;;
3677;SDS011;1855;50.934;6.958;2023-09-12T01:09:19;7.40;;;6.80;;
3677;SDS011;1855;50.934;6.958;2023-09-12T01:11:46;8.07;;;7.37;;
3677;SDS011;1855;50.934;6.958;2023-09-12T01:14:13;8.75;;;7.88;;
3677;SDS011;1855;50.934;6.958;2023-09-12T01:16:41;8.55;;;7.78;;
3677;SDS011;1855;50.934;6.958;2023-09-12T01:19:07;8.30;;;7.60;;
3677;SDS011;1855;50.934;6.958;2023-09-12T01:24:55;8.23;;;7.53;;
3677;SDS011;1855;50.934;6.958;2023-09-12T01:27:40;8.95;;;7.50;;
3677;SDS011;1855;50.934;6.958;2023-09-12T01:30:08;8.50;;;7.80;;
3677;SDS011;1855;50.934;6.958;2023-09-12T01:32:36;8.00;;;7.30;;
3677;SDS011;1855;50.934;6.958;2023-09-12T01:35:03;9.50;;;8.63;;
3677;SDS011;1855;50.934;6.958;2023-09-12T01:37:31;9.18;;;8.27;;
3677;SDS011;1855;50.934;6.958;2023-09-12T01:39:58;9.02;;;8.23;;
3677;SDS011;1855;50.934;6.958;2023-09-12T01:42:26;9.70;;;8.80;;
3677;SDS011;1855;50.934;6.958;2023-09-12T01:44:58;9.95;;;9.05;;
3677;SDS011;1855;50.934;6.958;2023-09-12T01:47:27;9.25;;;8.32;;
3677;SDS011;1855;50.934;6.958;2023-09-12T01:49:55;9.38;;;8.48;;
3677;SDS011;1855;50.934;6.958;2023-09-12T01:52:24;9.75;;;8.85;;
3677;SDS011;1855;50.934;6.958;2023-09-12T01:54:53;8.75;;;8.02;;
3677;SDS011;1855;50.934;6.958;2023-09-12T01:57:21;9.15;;;8.35;;
3677;SDS011;1855;50.934;6.958;2023-09-12T01:59:49;8.43;;;7.72;;
3677;SDS011;1855;50.934;6.958;2023-09-12T02:02:17;9.00;;;8.20;;
3677;SDS011;1855;50.934;6.958;2023-09-12T02:04:45;8.57;;;7.78;;
3677;SDS011;1855;50.934;6.958;2023-09-12T02:07:17;8.50;;;7.70;;
3677;SDS011;1855;50.934;6.958;2023-09-12T02:09:44;9.02;;;8.15;;
3677;SDS011;1855;50.934;6.958;2023-09-12T02:12:10;8.77;;;7.97;;
3677;SDS011;1855;50.934;6.958;2023-09-12T02:14:37;8.45;;;7.70;;
3677;SDS011;1855;50.934;6.958;2023-09-12T02:17:04;8.18;;;7.38;;
3677;SDS011;1855;50.934;6.958;2023-09-12T02:19:32;8.63;;;7.82;;
3677;SDS011;1855;50.934;6.958;2023-09-12T02:21:58;9.55;;;7.95;;
3677;SDS011;1855;50.934;6.958;2023-09-12T02:24:25;7.50;;;6.90;;
3677;SDS011;1855;50.934;6.958;2023-09-12T02:26:52;8.52;;;7.72;;
3677;SDS011;1855;50.934;6.958;2023-09-12T02:29:19;8.75;;;8.05;;
3677;SDS011;1855;50.934;6.958;2023-09-12T02:31:45;8.82;;;8.00;;
3677;SDS011;1855;50.934;6.958;2023-09-12T02:34:12;8.50;;;7.80;;
3677;SDS011;1855;50.934;6.958;2023-09-12T02:36:40;8.70;;;8.00;;
3677;SDS011;1855;50.934;6.958;2023-09-12T02:39:07;9.30;;;8.50;;
3677;SDS011;1855;50.934;6.958;2023-09-12T02:41:33;9.70;;;8.80;;
3677;SDS011;1855;50.934;6.958;2023-09-12T02:44:00;9.10;;;8.20;;
3677;SDS011;1855;50.934;6.958;2023-09-12T02:46:27;9.55;;;8.65;;
3677;SDS011;1855;50.934;6.958;2023-09-12T02:48:53;8.95;;;8.15;;
3677;SDS011;1855;50.934;6.958;2023-09-12T02:51:20;9.00;;;8.10;;
3677;SDS011;1855;50.934;6.958;2023-09-12T02:53:48;8.63;;;7.82;;
3677;SDS011;1855;50.934;6.958;2023-09-12T02:56:15;7.95;;;7.25;;
3677;SDS011;1855;50.934;6.958;2023-09-12T02:58:42;7.97;;;7.28;;
3677;SDS011;1855;50.934;6.958;2023-09-12T03:01:14;8.00;;;7.20;;
3677;SDS011;1855;50.934;6.958;2023-09-12T03:03:41;7.80;;;7.20;;
3677;SDS011;1855;50.934;6.958;2023-09-12T03:06:11;7.93;;;7.13;;
3677;SDS011;1855;50.934;6.958;2023-09-12T03:08:38;6.60;;;6.10;;
3677;SDS011;1855;50.934;6.958;2023-09-12T03:11:07;7.17;;;6.57;;
3677;SDS011;1855;50.934;6.958;2023-09-12T03:13:34;7.38;;;6.60;;
3677;SDS011;1855;50.934;6.958;2023-09-12T03:16:02;7.03;;;6.43;;
3677;SDS011;1855;50.934;6.958;2023-09-12T03:18:29;7.63;;;6.93;;
3677;SDS011;1855;50.934;6.958;2023-09-12T03:20:55;7.38;;;6.75;;
3677;SDS011;1855;50.934;6.958;2023-09-12T03:23:22;7.63;;;6.93;;
3677;SDS011;1855;50.934;6.958;2023-09-12T03:25:49;7.30;;;6.70;;
3677;SDS011;1855;50.934;6.958;2023-09-12T03:28:17;7.30;;;6.70;;
3677;SDS011;1855;50.934;6.958;2023-09-12T03:30:44;7.90;;;7.10;;
3677;SDS011;1855;50.934;6.958;2023-09-12T03:33:10;8.38;;;7.57;;
3677;SDS011;1855;50.934;6.958;2023-09-12T03:35:37;8.05;;;7.35;;
3677;SDS011;1855;50.934;6.958;2023-09-12T03:38:04;8.45;;;7.50;;
3677;SDS011;1855;50.934;6.958;2023-09-12T03:40:31;8.53;;;7.73;;
3677;SDS011;1855;50.934;6.958;2023-09-12T03:42:58;8.98;;;8.18;;
3677;SDS011;1855;50.934;6.958;2023-09-12T03:45:26;8.07;;;7.38;;
3677;SDS011;1855;50.934;6.958;2023-09-12T03:47:53;9.02;;;8.13;;
3677;SDS011;1855;50.934;6.958;2023-09-12T03:50:19;8.50;;;7.90;;
3677;SDS011;1855;50.934;6.958;2023-09-12T03:52:46;9.60;;;8.70;;
3677;SDS011;1855;50.934;6.958;2023-09-12T03:55:13;8.98;;;8.13;;
3677;SDS011;1855;50.934;6.958;2023-09-12T03:57:40;9.48;;;8.57;;
3677;SDS011;1855;50.934;6.958;2023-09-12T04:00:07;8.93;;;8.13;;
3677;SDS011;1855;50.934;6.958;2023-09-12T04:02:36;8.30;;;7.60;;
3677;SDS011;1855;50.934;6.958;2023-09-12T04:05:03;8.10;;;7.40;;
3677;SDS011;1855;50.934;6.958;2023-09-12T04:07:30;8.47;;;7.67;;
3677;SDS011;1855;50.934;6.958;2023-09-12T04:09:56;8.38;;;7.68;;
3677;SDS011;1855;50.934;6.958;2023-09-12T04:12:23;8.98;;;8.18;;
3677;SDS011;1855;50.934;6.958;2023-09-12T04:14:50;8.20;;;7.50;;
3677;SDS011;1855;50.934;6.958;2023-09-12T04:17:17;8.55;;;7.85;;
3677;SDS011;1855;50.934;6.958;2023-09-12T04:19:45;12.25;;;11.10;;
3677;SDS011;1855;50.934;6.958;2023-09-12T04:22:12;8.30;;;7.60;;
3677;SDS011;1855;50.934;6.958;2023-09-12T04:24:40;8.43;;;7.72;;
3677;SDS011;1855;50.934;6.958;2023-09-12T04:27:06;9.35;;;8.55;;
3677;SDS011;1855;50.934;6.958;2023-09-12T04:29:33;8.87;;;8.00;;
3677;SDS011;1855;50.934;6.958;2023-09-12T04:32:01;8.40;;;7.60;;
3677;SDS011;1855;50.934;6.958;2023-09-12T04:34:28;8.30;;;7.30;;
3677;SDS011;1855;50.934;6.958;2023-09-12T04:36:57;8.10;;;7.40;;
3677;SDS011;1855;50.934;6.958;2023-09-12T04:39:24;8.30;;;7.50;;
3677;SDS011;1855;50.934;6.958;2023-09-12T04:41:51;8.20;;;7.50;;
3677;SDS011;1855;50.934;6.958;2023-09-12T04:44:17;8.10;;;7.40;;
3677;SDS011;1855;50.934;6.958;2023-09-12T04:46:44;8.00;;;7.20;;
3677;SDS011;1855;50.934;6.958;2023-09-12T04:49:11;8.90;;;7.55;;
3677;SDS011;1855;50.934;6.958;2023-09-12T04:51:38;7.70;;;7.10;;
3677;SDS011;1855;50.934;6.958;2023-09-12T04:54:06;7.60;;;7.00;;
3677;SDS011;1855;50.934;6.958;2023-09-12T04:56:33;7.60;;;7.00;;
3677;SDS011;1855;50.934;6.958;2023-09-12T04:58:59;7.45;;;6.80;;
3677;SDS011;1855;50.934;6.958;2023-09-12T05:01:26;8.05;;;7.25;;
3677;SDS011;1855;50.934;6.958;2023-09-12T05:03:53;6.63;;;6.13;;
3677;SDS011;1855;50.934;6.958;2023-09-12T05:06:19;6.85;;;6.22;;
3677;SDS011;1855;50.934;6.958;2023-09-12T05:08:46;7.38;;;6.78;;
3677;SDS011;1855;50.934;6.958;2023-09-12T05:11:14;6.45;;;5.95;;
3677;SDS011;1855;50.934;6.958;2023-09-12T05:13:41;6.70;;;6.20;;
3677;SDS011;1855;50.934;6.958;2023-09-12T05:16:08;7.70;;;7.00;;
3677;SDS011;1855;50.934;6.958;2023-09-12T05:18:34;7.30;;;6.47;;
3677;SDS011;1855;50.934;6.958;2023-09-12T05:21:01;6.38;;;5.80;;
3677;SDS011;1855;50.934;6.958;2023-09-12T05:23:28;7.30;;;6.60;;
3677;SDS011;1855;50.934;6.958;2023-09-12T05:25:55;7.30;;;6.70;;
3677;SDS011;1855;50.934;6.958;2023-09-12T05:28:23;6.75;;;6.15;;
3677;SDS011;1855;50.934;6.958;2023-09-12T05:30:50;7.20;;;6.50;;
3677;SDS011;1855;50.934;6.958;2023-09-12T05:33:17;7.30;;;6.60;;
3677;SDS011;1855;50.934;6.958;2023-09-12T05:35:43;6.70;;;6.20;;
3677;SDS011;1855;50.934;6.958;2023-09-12T05:38:10;6.93;;;6.30;;
3677;SDS011;1855;50.934;6.958;2023-09-12T05:40:37;8.48;;;7.00;;
3677;SDS011;1855;50.934;6.958;2023-09-12T05:43:04;7.03;;;6.43;;
3677;SDS011;1855;50.934;6.958;2023-09-12T05:45:32;7.75;;;7.03;;
3677;SDS011;1855;50.934;6.958;2023-09-12T05:47:59;7.83;;;7.13;;
3677;SDS011;1855;50.934;6.958;2023-09-12T05:50:26;7.20;;;6.50;;
3677;SDS011;1855;50.934;6.958;2023-09-12T05:52:52;8.40;;;7.10;;
3677;SDS011;1855;50.934;6.958;2023-09-12T05:55:19;7.50;;;6.80;;
3677;SDS011;1855;50.934;6.958;2023-09-12T05:57:46;7.70;;;6.90;;
3677;SDS011;1855;50.934;6.958;2023-09-12T06:00:17;10.63;;;6.65;;
3677;SDS011;1855;50.934;6.958;2023-09-12T06:02:45;7.10;;;6.40;;
3677;SDS011;1855;50.934;6.958;2023-09-12T06:05:12;7.60;;;6.80;;
3677;SDS011;1855;50.934;6.958;2023-09-12T06:07:39;6.90;;;6.20;;
3677;SDS011;1855;50.934;6.958;2023-09-12T06:10:06;7.20;;;6.60;;
3677;SDS011;1855;50.934;6.958;2023-09-12T06:12:33;6.72;;;6.13;;
3677;SDS011;1855;50.934;6.958;2023-09-12T06:15:01;7.32;;;6.10;;
3677;SDS011;1855;50.934;6.958;2023-09-12T06:17:29;6.60;;;6.00;;
3677;SDS011;1855;50.934;6.958;2023-09-12T06:19:57;6.10;;;5.50;;
3677;SDS011;1855;50.934;6.958;2023-09-12T06:22:24;5.97;;;5.38;;
3677;SDS011;1855;50.934;6.958;2023-09-12T06:24:51;6.22;;;5.63;;
3677;SDS011;1855;50.934;6.958;2023-09-12T06:27:18;6.35;;;5.75;;
3677;SDS011;1855;50.934;6.958;2023-09-12T06:29:44;7.68;;;5.70;;
3677;SDS011;1855;50.934;6.958;2023-09-12T06:32:13;6.15;;;5.18;;
3677;SDS011;1855;50.934;6.958;2023-09-12T06:34:40;6.55;;;5.30;;
3677;SDS011;1855;50.934;6.958;2023-09-12T06:37:08;5.80;;;5.13;;
3677;SDS011;1855;50.934;6.958;2023-09-12T06:39:34;7.47;;;6.63;;
3677;SDS011;1855;50.934;6.958;2023-09-12T06:42:01;6.90;;;6.13;;
3677;SDS011;1855;50.934;6.958;2023-09-12T06:44:28;9.25;;;8.35;;
3677;SDS011;1855;50.934;6.958;2023-09-12T06:46:55;10.40;;;9.30;;
3677;SDS011;1855;50.934;6.958;2023-09-12T06:49:21;10.23;;;9.20;;
3677;SDS011;1855;50.934;6.958;2023-09-12T06:51:48;14.05;;;10.43;;
3677;SDS011;1855;50.934;6.958;2023-09-12T06:54:16;11.13;;;10.02;;
3677;SDS011;1855;50.934;6.958;2023-09-12T06:56:43;11.07;;;10.07;;
3677;SDS011;1855;50.934;6.958;2023-09-12T06:59:09;11.38;;;9.60;;
3677;SDS011;1855;50.934;6.958;2023-09-12T07:01:37;9.57;;;8.77;;
3677;SDS011;1855;50.934;6.958;2023-09-12T07:04:03;9.05;;;8.18;;
3677;SDS011;1855;50.934;6.958;2023-09-12T07:06:30;9.10;;;8.18;;
3677;SDS011;1855;50.934;6.958;2023-09-12T07:08:57;9.52;;;8.73;;
3677;SDS011;1855;50.934;6.958;2023-09-12T07:11:25;9.60;;;8.80;;
3677;SDS011;1855;50.934;6.958;2023-09-12T07:13:52;9.20;;;8.40;;
3677;SDS011;1855;50.934;6.958;2023-09-12T07:16:19;9.23;;;8.32;;
3677;SDS011;1855;50.934;6.958;2023-09-12T07:18:47;9.25;;;8.45;;
3677;SDS011;1855;50.934;6.958;2023-09-12T07:21:14;8.88;;;8.15;;
3677;SDS011;1855;50.934;6.958;2023-09-12T07:23:41;9.15;;;8.27;;
3677;SDS011;1855;50.934;6.958;2023-09-12T07:26:11;8.18;;;7.45;;
3677;SDS011;1855;50.934;6.958;2023-09-12T07:28:40;9.02;;;8.25;;
3677;SDS011;1855;50.934;6.958;2023-09-12T07:31:07;8.52;;;7.65;;
3677;SDS011;1855;50.934;6.958;2023-09-12T07:33:33;9.32;;;8.07;;
3677;SDS011;1855;50.934;6.958;2023-09-12T07:36:00;8.07;;;7.35;;
3677;SDS011;1855;50.934;6.958;2023-09-12T07:38:28;8.10;;;7.40;;
3677;SDS011;1855;50.934;6.958;2023-09-12T07:40:55;8.68;;;7.88;;
3677;SDS011;1855;50.934;6.958;2023-09-12T07:43:23;8.03;;;7.23;;
3677;SDS011;1855;50.934;6.958;2023-09-12T07:45:54;7.32;;;6.72;;
3677;SDS011;1855;50.934;6.958;2023-09-12T07:48:21;7.10;;;6.50;;
3677;SDS011;1855;50.934;6.958;2023-09-12T07:50:47;6.60;;;5.90;;
3677;SDS011;1855;50.934;6.958;2023-09-12T07:53:14;6.30;;;5.70;;
3677;SDS011;1855;50.934;6.958;2023-09-12T07:55:41;6.75;;;6.05;;
3677;SDS011;1855;50.934;6.958;2023-09-12T07:58:11;5.90;;;5.30;;
3677;SDS011;1855;50.934;6.958;2023-09-12T08:00:38;8.60;;;5.90;;
3677;SDS011;1855;50.934;6.958;2023-09-12T08:03:06;5.75;;;5.20;;
3677;SDS011;1855;50.934;6.958;2023-09-12T08:05:33;5.95;;;5.45;;
3677;SDS011;1855;50.934;6.958;2023-09-12T08:08:00;5.38;;;4.97;;
3677;SDS011;1855;50.934;6.958;2023-09-12T08:10:27;6.03;;;4.90;;
3677;SDS011;1855;50.934;6.958;2023-09-12T08:12:54;5.88;;;5.35;;
3677;SDS011;1855;50.934;6.958;2023-09-12T08:15:21;5.93;;;5.32;;
3677;SDS011;1855;50.934;6.958;2023-09-12T08:17:47;6.00;;;5.60;;
3677;SDS011;1855;50.934;6.958;2023-09-12T08:20:18;6.47;;;5.38;;
3677;SDS011;1855;50.934;6.958;2023-09-12T08:22:45;5.10;;;4.60;;
3677;SDS011;1855;50.934;6.958;2023-09-12T08:25:12;5.60;;;5.10;;
3677;SDS011;1855;50.934;6.958;2023-09-12T08:27:39;5.70;;;5.20;;
3677;SDS011;1855;50.934;6.958;2023-09-12T08:30:07;4.95;;;4.50;;
3677;SDS011;1855;50.934;6.958;2023-09-12T08:32:35;5.65;;;4.80;;
3677;SDS011;1855;50.934;6.958;2023-09-12T08:35:04;6.30;;;5.70;;
3677;SDS011;1855;50.934;6.958;2023-09-12T08:37:33;5.70;;;5.20;;
3677;SDS011;1855;50.934;6.958;2023-09-12T08:40:00;6.95;;;6.35;;
3677;SDS011;1855;50.934;6.958;2023-09-12T08:42:32;6.90;;;6.30;;
3677;SDS011;1855;50.934;6.958;2023-09-12T08:45:03;6.78;;;6.18;;
3677;SDS011;1855;50.934;6.958;2023-09-12T08:47:31;6.47;;;5.88;;
3677;SDS011;1855;50.934;6.958;2023-09-12T08:50:00;6.18;;;5.57;;
3677;SDS011;1855;50.934;6.958;2023-09-12T08:52:29;7.00;;;6.40;;
3677;SDS011;1855;50.934;6.958;2023-09-12T08:54:57;7.10;;;6.50;;
3677;SDS011;1855;50.934;6.958;2023-09-12T08:57:23;6.80;;;6.30;;
3677;SDS011;1855;50.934;6.958;2023-09-12T08:59:51;6.28;;;5.68;;
3677;SDS011;1855;50.934;6.958;2023-09-12T09:02:20;6.82;;;6.13;;
3677;SDS011;1855;50.934;6.958;2023-09-12T09:04:47;6.20;;;5.70;;
3677;SDS011;1855;50.934;6.958;2023-09-12T09:07:16;6.55;;;5.85;;
3677;SDS011;1855;50.934;6.958;2023-09-12T09:09:44;6.75;;;6.15;;
3677;SDS011;1855;50.934;6.958;2023-09-12T09:12:14;6.38;;;5.78;;
3677;SDS011;1855;50.934;6.958;2023-09-12T09:14:40;6.05;;;5.45;;
3677;SDS011;1855;50.934;6.958;2023-09-12T09:17:07;6.53;;;5.80;;
3677;SDS011;1855;50.934;6.958;2023-09-12T09:19:42;5.70;;;5.30;;
3677;SDS011;1855;50.934;6.958;2023-09-12T09:22:10;6.20;;;5.70;;
3677;SDS011;1855;50.934;6.958;2023-09-12T09:24:38;5.77;;;5.27;;
3677;SDS011;1855;50.934;6.958;2023-09-12T09:27:04;5.78;;;5.28;;
3677;SDS011;1855;50.934;6.958;2023-09-12T09:29:32;5.05;;;4.70;;
3677;SDS011;1855;50.934;6.958;2023-09-12T09:32:16;6.10;;;5.50;;
3677;SDS011;1855;50.934;6.958;2023-09-12T09:34:43;5.88;;;5.30;;
3677;SDS011;1855;50.934;6.958;2023-09-12T09:37:10;5.80;;;5.22;;
3677;SDS011;1855;50.934;6.958;2023-09-12T09:39:37;5.20;;;4.70;;
3677;SDS011;1855;50.934;6.958;2023-09-12T09:42:04;5.35;;;4.70;;
3677;SDS011;1855;50.934;6.958;2023-09-12T09:44:38;5.30;;;4.80;;
3677;SDS011;1855;50.934;6.958;2023-09-12T09:47:04;5.22;;;4.82;;
3677;SDS011;1855;50.934;6.958;2023-09-12T09:49:31;4.80;;;4.50;;
3677;SDS011;1855;50.934;6.958;2023-09-12T09:51:59;5.30;;;4.90;;
3677;SDS011;1855;50.934;6.958;2023-09-12T09:54:29;5.03;;;4.63;;
3677;SDS011;1855;50.934;6.958;2023-09-12T09:56:56;9.27;;;5.10;;
3677;SDS011;1855;50.934;6.958;2023-09-12T09:59:23;6.00;;;4.80;;
3677;SDS011;1855;50.934;6.958;2023-09-12T10:01:54;5.20;;;4.68;;
3677;SDS011;1855;50.934;6.958;2023-09-12T10:04:22;5.13;;;4.40;;
3677;SDS011;1855;50.934;6.958;2023-09-12T10:06:50;4.65;;;4.25;;
3677;SDS011;1855;50.934;6.958;2023-09-12T10:09:18;5.40;;;4.43;;
3677;SDS011;1855;50.934;6.958;2023-09-12T10:11:48;5.20;;;4.70;;
3677;SDS011;1855;50.934;6.958;2023-09-12T10:14:17;4.30;;;3.90;;
3677;SDS011;1855;50.934;6.958;2023-09-12T10:16:46;4.57;;;4.18;;
3677;SDS011;1855;50.934;6.958;2023-09-12T10:19:16;4.50;;;4.10;;
3677;SDS011;1855;50.934;6.958;2023-09-12T10:21:46;4.00;;;3.70;;
3677;SDS011;1855;50.934;6.958;2023-09-12T10:24:15;4.70;;;4.30;;
3677;SDS011;1855;50.934;6.958;2023-09-12T10:26:43;4.20;;;3.70;;
3677;SDS011;1855;50.934;6.958;2023-09-12T10:29:12;4.10;;;3.80;;
3677;SDS011;1855;50.934;6.958;2023-09-12T10:31:40;4.00;;;3.70;;
3677;SDS011;1855;50.934;6.958;2023-09-12T10:34:07;4.55;;;4.15;;
3677;SDS011;1855;50.934;6.958;2023-09-12T10:36:39;4.10;;;3.80;;
3677;SDS011;1855;50.934;6.958;2023-09-12T10:39:07;5.28;;;4.78;;
3677;SDS011;1855;50.934;6.958;2023-09-12T10:41:36;4.73;;;4.23;;
3677;SDS011;1855;50.934;6.958;2023-09-12T10:44:05;5.60;;;4.40;;
3677;SDS011;1855;50.934;6.958;2023-09-12T10:46:35;4.40;;;4.00;;
3677;SDS011;1855;50.934;6.958;2023-09-12T10:49:05;4.75;;;3.80;;
3677;SDS011;1855;50.934;6.958;2023-09-12T10:51:33;3.92;;;3.63;;
3677;SDS011;1855;50.934;6.958;2023-09-12T10:54:05;4.50;;;4.20;;
3677;SDS011;1855;50.934;6.958;2023-09-12T10:56:32;3.90;;;3.60;;
3677;SDS011;1855;50.934;6.958;2023-09-12T10:59:09;4.40;;;4.00;;
3677;SDS011;1855;50.934;6.958;2023-09-12T11:01:40;4.00;;;3.70;;
3677;SDS011;1855;50.934;6.958;2023-09-12T11:12:49;4.90;;;4.50;;
3677;SDS011;1855;50.934;6.958;2023-09-12T11:15:17;5.22;;;4.75;;
3677;SDS011;1855;50.934;6.958;2023-09-12T11:17:45;5.50;;;5.00;;
3677;SDS011;1855;50.934;6.958;2023-09-12T11:20:14;4.40;;;4.00;;
3677;SDS011;1855;50.934;6.958;2023-09-12T11:22:42;5.22;;;4.82;;
3677;SDS011;1855;50.934;6.958;2023-09-12T11:25:16;4.82;;;4.45;;
3677;SDS011;1855;50.934;6.958;2023-09-12T11:27:46;4.67;;;4.17;;
3677;SDS011;1855;50.934;6.958;2023-09-12T11:30:29;4.35;;;3.63;;
3677;SDS011;1855;50.934;6.958;2023-09-12T11:32:57;4.40;;;4.00;;
3677;SDS011;1855;50.934;6.958;2023-09-12T11:35:25;4.38;;;3.97;;
3677;SDS011;1855;50.934;6.958;2023-09-12T11:37:54;4.15;;;3.75;;
3677;SDS011;1855;50.934;6.958;2023-09-12T11:40:23;3.97;;;3.67;;
3677;SDS011;1855;50.934;6.958;2023-09-12T11:42:52;4.50;;;4.10;;
3677;SDS011;1855;50.934;6.958;2023-09-12T11:45:18;5.00;;;4.50;;
3677;SDS011;1855;50.934;6.958;2023-09-12T11:47:46;4.78;;;4.15;;
3677;SDS011;1855;50.934;6.958;2023-09-12T11:50:25;9.90;;;5.32;;
3677;SDS011;1855;50.934;6.958;2023-09-12T11:52:58;15.77;;;6.90;;
3677;SDS011;1855;50.934;6.958;2023-09-12T11:55:30;7.43;;;5.00;;
3677;SDS011;1855;50.934;6.958;2023-09-12T11:57:59;7.55;;;5.35;;
3677;SDS011;1855;50.934;6.958;2023-09-12T12:00:26;7.13;;;5.00;;
3677;SDS011;1855;50.934;6.958;2023-09-12T12:02:54;7.13;;;4.82;;
3677;SDS011;1855;50.934;6.958;2023-09-12T12:05:21;5.87;;;4.00;;
3677;SDS011;1855;50.934;6.958;2023-09-12T12:07:48;4.30;;;3.90;;
3677;SDS011;1855;50.934;6.958;2023-09-12T12:10:16;5.28;;;4.53;;
3677;SDS011;1855;50.934;6.958;2023-09-12T12:12:43;4.47;;;4.07;;
3677;SDS011;1855;50.934;6.958;2023-09-12T12:15:12;4.88;;;4.40;;
3677;SDS011;1855;50.934;6.958;2023-09-12T12:17:40;4.47;;;4.07;;
3677;SDS011;1855;50.934;6.958;2023-09-12T12:20:07;4.95;;;4.50;;
3677;SDS011;1855;50.934;6.958;2023-09-12T12:22:36;4.25;;;3.95;;
3677;SDS011;1855;50.934;6.958;2023-09-12T12:25:06;4.50;;;4.10;;
3677;SDS011;1855;50.934;6.958;2023-09-12T12:27:35;4.93;;;4.53;;
3677;SDS011;1855;50.934;6.958;2023-09-12T12:30:03;4.55;;;4.25;;
3677;SDS011;1855;50.934;6.958;2023-09-12T12:32:32;4.80;;;4.40;;
3677;SDS011;1855;50.934;6.958;2023-09-12T12:34:59;4.70;;;4.30;;
3677;SDS011;1855;50.934;6.958;2023-09-12T12:37:27;6.00;;;4.10;;
3677;SDS011;1855;50.934;6.958;2023-09-12T12:39:56;4.60;;;4.20;;
3677;SDS011;1855;50.934;6.958;2023-09-12T12:42:23;4.30;;;3.90;;
3677;SDS011;1855;50.934;6.958;2023-09-12T12:44:52;4.63;;;4.22;;
3677;SDS011;1855;50.934;6.958;2023-09-12T12:47:20;4.17;;;3.87;;
3677;SDS011;1855;50.934;6.958;2023-09-12T12:49:51;4.90;;;4.40;;
3677;SDS011;1855;50.934;6.958;2023-09-12T12:52:22;4.72;;;4.30;;
3677;SDS011;1855;50.934;6.958;2023-09-12T12:54:49;4.30;;;3.90;;
3677;SDS011;1855;50.934;6.958;2023-09-12T12:57:18;5.30;;;3.60;;
3677;SDS011;1855;50.934;6.958;2023-09-12T12:59:45;4.70;;;4.30;;
3677;SDS011;1855;50.934;6.958;2023-09-12T13:02:12;4.40;;;3.90;;
3677;SDS011;1855;50.934;6.958;2023-09-12T13:04:39;4.60;;;4.05;;
3677;SDS011;1855;50.934;6.958;2023-09-12T13:07:07;5.10;;;4.60;;
3677;SDS011;1855;50.934;6.958;2023-09-12T13:09:35;4.68;;;4.18;;
3677;SDS011;1855;50.934;6.958;2023-09-12T13:12:03;5.23;;;4.23;;
3677;SDS011;1855;50.934;6.958;2023-09-12T13:14:31;4.38;;;3.97;;
3677;SDS011;1855;50.934;6.958;2023-09-12T13:16:58;5.55;;;3.50;;
3677;SDS011;1855;50.934;6.958;2023-09-12T13:19:25;4.10;;;3.80;;
3677;SDS011;1855;50.934;6.958;2023-09-12T13:21:52;4.47;;;4.10;;
3677;SDS011;1855;50.934;6.958;2023-09-12T13:24:21;4.70;;;4.20;;
3677;SDS011;1855;50.934;6.958;2023-09-12T13:26:48;4.63;;;4.22;;
3677;SDS011;1855;50.934;6.958;2023-09-12T13:29:14;4.53;;;4.13;;
3677;SDS011;1855;50.934;6.958;2023-09-12T13:31:41;5.00;;;4.57;;
3677;SDS011;1855;50.934;6.958;2023-09-12T13:34:08;4.80;;;4.40;;
3677;SDS011;1855;50.934;6.958;2023-09-12T13:36:35;4.70;;;4.30;;
3677;SDS011;1855;50.934;6.958;2023-09-12T13:39:01;4.15;;;3.85;;
3677;SDS011;1855;50.934;6.958;2023-09-12T13:41:30;4.72;;;4.32;;
3677;SDS011;1855;50.934;6.958;2023-09-12T13:43:57;4.00;;;3.70;;
3677;SDS011;1855;50.934;6.958;2023-09-12T13:46:23;4.50;;;4.10;;
3677;SDS011;1855;50.934;6.958;2023-09-12T13:48:50;3.90;;;3.60;;
3677;SDS011;1855;50.934;6.958;2023-09-12T13:51:17;4.07;;;3.77;;
3677;SDS011;1855;50.934;6.958;2023-09-12T13:53:44;5.28;;;4.30;;
3677;SDS011;1855;50.934;6.958;2023-09-12T13:56:10;3.78;;;3.38;;
3677;SDS011;1855;50.934;6.958;2023-09-12T13:58:38;4.10;;;3.80;;
3677;SDS011;1855;50.934;6.958;2023-09-12T14:01:05;4.10;;;3.70;;
3677;SDS011;1855;50.934;6.958;2023-09-12T14:03:32;4.40;;;4.10;;
3677;SDS011;1855;50.934;6.958;2023-09-12T14:05:59;4.28;;;3.97;;
3677;SDS011;1855;50.934;6.958;2023-09-12T14:08:25;4.50;;;4.10;;
3677;SDS011;1855;50.934;6.958;2023-09-12T14:10:52;4.70;;;3.83;;
3677;SDS011;1855;50.934;6.958;2023-09-12T14:13:19;4.00;;;3.55;;
3677;SDS011;1855;50.934;6.958;2023-09-12T14:15:47;4.30;;;3.90;;
3677;SDS011;1855;50.934;6.958;2023-09-12T14:18:16;4.30;;;3.97;;
3677;SDS011;1855;50.934;6.958;2023-09-12T14:20:42;4.07;;;3.78;;
3677;SDS011;1855;50.934;6.958;2023-09-12T14:23:09;4.10;;;3.80;;
3677;SDS011;1855;50.934;6.958;2023-09-12T14:25:38;4.50;;;4.10;;
3677;SDS011;1855;50.934;6.958;2023-09-12T14:28:05;4.40;;;4.00;;
3677;SDS011;1855;50.934;6.958;2023-09-12T14:30:32;4.15;;;3.85;;
3677;SDS011;1855;50.934;6.958;2023-09-12T14:33:02;4.40;;;4.00;;
3677;SDS011;1855;50.934;6.958;2023-09-12T14:35:29;3.95;;;3.65;;
3677;SDS011;1855;50.934;6.958;2023-09-12T14:37:56;4.20;;;3.80;;
3677;SDS011;1855;50.934;6.958;2023-09-12T14:40:23;4.43;;;3.70;;
3677;SDS011;1855;50.934;6.958;2023-09-12T14:42:51;4.00;;;3.70;;
3677;SDS011;1855;50.934;6.958;2023-09-12T14:45:18;4.20;;;3.80;;
3677;SDS011;1855;50.934;6.958;2023-09-12T14:47:45;3.95;;;3.30;;
3677;SDS011;1855;50.934;6.958;2023-09-12T14:50:13;3.30;;;3.00;;
3677;SDS011;1855;50.934;6.958;2023-09-12T14:52:40;3.80;;;3.50;;
3677;SDS011;1855;50.934;6.958;2023-09-12T14:55:07;3.50;;;3.20;;
3677;SDS011;1855;50.934;6.958;2023-09-12T14:57:34;4.00;;;3.70;;
3677;SDS011;1855;50.934;6.958;2023-09-12T15:00:01;4.28;;;3.20;;
3677;SDS011;1855;50.934;6.958;2023-09-12T15:02:28;3.53;;;3.22;;
3677;SDS011;1855;50.934;6.958;2023-09-12T15:04:57;3.70;;;3.40;;
3677;SDS011;1855;50.934;6.958;2023-09-12T15:07:26;3.83;;;3.13;;
3677;SDS011;1855;50.934;6.958;2023-09-12T15:09:54;3.30;;;2.83;;
3677;SDS011;1855;50.934;6.958;2023-09-12T15:12:21;3.30;;;3.10;;
3677;SDS011;1855;50.934;6.958;2023-09-12T15:14:49;3.80;;;3.00;;
3677;SDS011;1855;50.934;6.958;2023-09-12T15:17:16;3.63;;;3.30;;
3677;SDS011;1855;50.934;6.958;2023-09-12T15:19:43;3.20;;;2.90;;
3677;SDS011;1855;50.934;6.958;2023-09-12T15:22:10;7.07;;;5.05;;
3677;SDS011;1855;50.934;6.958;2023-09-12T15:24:39;4.13;;;3.70;;
3677;SDS011;1855;50.934;6.958;2023-09-12T15:27:06;3.90;;;3.20;;
3677;SDS011;1855;50.934;6.958;2023-09-12T15:29:33;3.30;;;3.10;;